Time;durP1;ratioP1;P1;durP2;ratioP2;P2;SDS_P1;SDS_P2;PMS_P1;PMS_P2;Temp;Humidity;BMP_temperature;BMP_pressure;BME280_temperature;BME280_humidity;BME280_pressure;Samples;Min_cycle;Max_cycle;Signal;HPM_P1;HPM_P2
2023/05/19 00:02:04;;;;;;;14.98;8.30;;;14.40;99.90;;;14.71;68.89;102616.94;4926899;29;20526;-67
2023/05/19 00:04:34;;;;;;;17.40;8.10;;;14.40;99.90;;;14.67;68.72;102617.81;4926829;29;20063;-67
2023/05/19 00:07:04;;;;;;;13.45;8.35;;;14.30;99.90;;;14.70;69.22;102611.59;4929570;29;20078;-67
2023/05/19 00:09:33;;;;;;;17.15;7.65;;;14.40;99.90;;;14.61;69.17;102608.88;4927638;29;20047;-68
2023/05/19 00:12:02;;;;;;;18.92;7.93;;;14.30;99.90;;;13.77;69.05;102479.56;4928292;29;20485;-68
2023/05/19 00:14:33;;;;;;;14.45;7.60;;;14.20;99.90;;;14.48;69.50;102612.34;4928443;29;20155;-68
2023/05/19 00:17:02;;;;;;;14.68;7.82;;;14.20;99.90;;;14.36;69.74;102605.16;4927149;29;20123;-68
2023/05/19 00:19:31;;;;;;;14.93;7.90;;;14.10;99.90;;;14.29;69.71;102611.28;4929617;29;20079;-67
2023/05/19 00:21:59;;;;;;;15.07;8.15;;;14.00;99.90;;;14.27;69.96;102610.34;4926405;29;20040;-67
2023/05/19 00:24:28;;;;;;;13.45;7.68;;;13.90;99.90;;;14.27;70.19;102608.63;4926244;29;20568;-67
2023/05/19 00:26:57;;;;;;;12.45;7.82;;;14.00;99.90;;;14.23;70.09;102611.19;4929158;29;20059;-67
2023/05/19 00:29:25;;;;;;;14.18;7.93;;;13.90;99.90;;;14.20;70.40;102611.19;4926917;29;20040;-67
2023/05/19 00:31:56;;;;;;;15.73;7.57;;;13.90;99.90;;;14.19;70.21;102612.06;4928284;29;20404;-67
2023/05/19 00:34:24;;;;;;;15.30;7.88;;;13.90;99.90;;;14.24;70.24;102615.66;4928187;29;20461;-67
2023/05/19 00:36:53;;;;;;;16.45;7.80;;;13.90;99.90;;;14.14;70.09;102609.38;4933474;29;20044;-67
2023/05/19 00:39:21;;;;;;;17.65;7.88;;;13.80;99.90;;;14.18;70.16;102613.84;4928592;29;20445;-67
2023/05/19 00:41:49;;;;;;;12.35;7.13;;;13.90;99.90;;;14.17;70.01;102616.47;4933014;29;20072;-67
2023/05/19 00:44:18;;;;;;;12.73;7.22;;;13.90;99.90;;;14.23;69.96;102619.19;4929476;29;20132;-67
2023/05/19 00:46:46;;;;;;;15.75;8.10;;;13.90;99.90;;;14.15;69.86;102620.91;4925971;29;20051;-67
2023/05/19 00:49:16;;;;;;;16.58;7.38;;;13.80;99.90;;;14.15;69.90;102613.78;4943673;28;20493;-67
2023/05/19 00:51:45;;;;;;;14.20;8.02;;;13.80;99.90;;;14.06;69.88;102599.53;4926702;29;20504;-67
2023/05/19 00:54:14;;;;;;;12.55;7.20;;;13.80;99.90;;;14.13;69.56;102604.91;4941515;29;20130;-67
2023/05/19 00:56:43;;;;;;;13.93;7.40;;;13.80;99.90;;;14.09;69.54;102603.09;4927911;29;20051;-67
2023/05/19 00:59:11;;;;;;;15.15;7.30;;;13.80;99.90;;;14.05;69.85;102601.28;4927614;29;20051;-67
2023/05/19 01:01:41;;;;;;;16.55;7.88;;;13.80;99.90;;;14.04;69.95;102602.16;4928563;29;20087;-67
2023/05/19 01:04:10;;;;;;;12.40;7.65;;;13.70;99.90;;;14.06;69.63;102602.19;4926146;29;20107;-67
2023/05/19 01:06:40;;;;;;;16.80;7.97;;;13.70;99.90;;;14.03;69.88;102604.81;4925849;29;20079;-67
2023/05/19 01:09:09;;;;;;;12.50;7.22;;;13.70;99.90;;;13.97;69.92;102608.31;4921740;29;20147;-67
2023/05/19 01:11:37;;;;;;;13.68;7.70;;;13.60;99.90;;;14.00;70.03;102594.13;4928562;29;20412;-67
2023/05/19 01:14:06;;;;;;;19.25;7.30;;;13.70;99.90;;;13.97;69.89;102595.03;4941117;29;20120;-67
2023/05/19 01:16:40;;;;;;;16.02;7.57;;;13.60;99.90;;;13.96;69.86;102602.97;4927541;29;20047;-67
2023/05/19 01:19:30;;;;;;;13.82;7.38;;;13.60;99.90;;;13.95;70.05;102587.91;4927805;29;20044;-67
2023/05/19 01:22:21;;;;;;;11.18;6.85;;;13.60;99.90;;;13.93;69.91;102593.22;4927498;29;20052;-67
2023/05/19 01:25:43;;;;;;;12.93;7.25;;;13.60;99.90;;;13.89;70.08;102598.47;4926543;29;20087;-67
2023/05/19 01:28:36;;;;;;;16.45;7.63;;;13.60;99.90;;;13.85;70.26;102588.69;4921320;29;20444;-67
2023/05/19 01:31:10;;;;;;;13.65;6.70;;;13.50;99.90;;;13.87;70.12;102586.94;4926180;29;20044;-67
2023/05/19 01:33:41;;;;;;;12.85;7.40;;;13.60;99.90;;;13.85;70.25;102592.25;4941019;29;20055;-67
2023/05/19 01:36:11;;;;;;;;;;;13.50;99.90;;;13.77;70.32;102588.59;4928022;29;20493;-67
2023/05/19 01:38:40;;;;;;;12.05;7.18;;;13.50;99.90;;;13.78;70.12;102581.53;4925243;29;19933;-68
2023/05/19 01:41:09;;;;;;;14.68;7.53;;;13.50;99.90;;;13.50;70.43;102562.63;4928528;29;20079;-67
2023/05/19 01:43:38;;;;;;;12.95;6.68;;;13.40;99.90;;;13.66;70.89;102576.06;4939654;29;20131;-67
2023/05/19 01:46:09;;;;;;;11.85;7.38;;;13.40;99.90;;;13.62;70.82;102580.47;4927478;29;20043;-67
2023/05/19 01:48:38;;;;;;;16.77;7.45;;;13.40;99.90;;;13.61;70.92;102591.09;4926174;29;20481;-67
2023/05/19 01:51:06;;;;;;;13.70;7.78;;;13.30;99.90;;;13.57;71.00;102584.84;4926614;29;20050;-67
2023/05/19 01:53:35;;;;;;;17.48;7.60;;;13.30;99.90;;;13.57;71.39;102588.41;4926863;29;20070;-67
2023/05/19 01:56:04;;;;;;;13.45;7.53;;;13.30;99.90;;;13.46;71.27;102574.09;4940414;29;20044;-67
2023/05/19 01:58:44;;;;;;;17.95;8.13;;;13.20;99.90;;;13.47;71.64;102583.84;4922908;29;20056;-67
2023/05/19 02:01:29;;;;;;;16.45;7.50;;;13.20;99.90;;;13.37;71.96;102568.69;4924465;29;20520;-67
2023/05/19 02:04:17;;;;;;;14.70;7.35;;;13.10;99.90;;;13.24;71.98;102558.75;4924469;29;20126;-67
2023/05/19 02:06:53;;;;;;;14.18;7.45;;;13.10;99.90;;;13.24;72.47;102565.88;4941462;29;20063;-67
2023/05/19 02:09:29;;;;;;;13.85;7.25;;;13.00;99.90;;;13.20;72.56;102559.59;4924569;29;20108;-67
2023/05/19 02:12:06;;;;;;;15.80;7.80;;;13.00;99.90;;;13.18;72.67;102563.13;4941060;29;20075;-67
2023/05/19 02:14:43;;;;;;;16.02;8.18;;;12.90;99.90;;;13.24;73.06;102573.84;4927362;29;20071;-67
2023/05/19 02:17:16;;;;;;;13.43;7.38;;;12.90;99.90;;;12.95;73.38;102538.88;4920614;29;20052;-67
2023/05/19 02:19:45;;;;;;;14.52;8.13;;;12.80;99.90;;;13.09;73.25;102560.34;4930822;29;20060;-67
2023/05/19 02:22:15;;;;;;;14.50;7.60;;;12.80;99.90;;;13.14;73.55;102562.19;4940327;29;20044;-67
2023/05/19 02:24:45;;;;;;;16.48;8.18;;;12.80;99.90;;;12.99;73.62;102577.91;4926799;29;20048;-67
2023/05/19 02:27:13;;;;;;;16.77;8.07;;;12.70;99.90;;;13.05;73.71;102566.50;4924512;29;20083;-67
2023/05/19 02:29:43;;;;;;;17.38;8.40;;;12.80;99.90;;;12.96;74.14;102555.72;4923898;29;20414;-67
2023/05/19 02:32:13;;;;;;;13.20;8.20;;;12.60;99.90;;;12.89;74.34;102565.38;4927088;29;20083;-67
2023/05/19 02:34:44;;;;;;;16.30;7.72;;;12.60;99.90;;;12.89;74.66;102560.03;4939599;29;20052;-68
2023/05/19 02:37:13;;;;;;;15.48;8.57;;;12.60;99.90;;;12.97;74.45;102561.03;4940511;28;20092;-67
2023/05/19 02:39:42;;;;;;;17.50;7.68;;;12.60;99.90;;;12.96;74.46;102555.72;4925769;29;20419;-67
2023/05/19 02:42:11;;;;;;;12.43;7.15;;;12.70;99.90;;;13.01;74.38;102561.97;4924953;29;20126;-67
2023/05/19 02:44:39;;;;;;;17.30;8.23;;;12.70;99.90;;;13.03;74.48;102547.88;4926415;29;20067;-67
2023/05/19 02:47:07;;;;;;;16.08;7.60;;;12.70;99.90;;;13.06;74.49;102552.34;4923975;29;20048;-67
2023/05/19 02:49:37;;;;;;;14.65;7.95;;;12.70;99.90;;;13.05;74.44;102553.22;4941667;29;20048;-67
2023/05/19 02:52:06;;;;;;;13.63;7.23;;;12.70;99.90;;;13.06;74.48;102547.94;4922534;29;20059;-67
2023/05/19 02:54:35;;;;;;;14.77;7.63;;;12.80;99.90;;;13.06;74.41;102547.94;4941070;28;20040;-67
2023/05/19 02:57:04;;;;;;;14.10;7.72;;;12.80;99.90;;;13.09;74.44;102553.28;4939101;29;20419;-67
2023/05/19 02:59:32;;;;;;;14.07;7.95;;;12.80;99.90;;;13.12;74.48;102550.69;4925427;29;20062;-67
2023/05/19 03:02:02;;;;;;;17.92;7.82;;;12.80;99.90;;;13.06;74.47;102550.59;4925431;29;20044;-67
2023/05/19 03:04:30;;;;;;;15.47;8.27;;;12.80;99.90;;;13.06;74.19;102547.94;4924590;29;20051;-67
2023/05/19 03:07:01;;;;;;;14.48;7.85;;;12.70;99.90;;;13.11;74.34;102548.88;4926240;29;20299;-67
2023/05/19 03:09:30;;;;;;;14.32;7.28;;;12.80;99.90;;;13.13;74.30;102549.78;4938287;29;20489;-67
2023/05/19 03:12:02;;;;;;;17.05;7.80;;;12.80;99.90;;;13.08;74.35;102540.88;4923586;29;20129;-67
2023/05/19 03:14:32;;;;;;;18.80;8.55;;;12.80;99.90;;;13.09;74.12;102540.00;4940937;29;20158;-67
2023/05/19 03:17:01;;;;;;;16.95;8.20;;;12.80;99.90;;;13.13;73.94;102536.50;4940095;29;20052;-67
2023/05/19 03:19:31;;;;;;;14.27;7.65;;;12.80;99.90;;;13.13;74.25;102536.50;4931449;29;20054;-67
2023/05/19 03:22:01;;;;;;;13.32;8.10;;;12.80;99.90;;;13.08;74.20;102538.22;4932147;29;20412;-67
2023/05/19 03:24:29;;;;;;;15.87;8.20;;;12.80;99.90;;;13.09;74.06;102537.34;4930771;29;20083;-67
2023/05/19 03:26:57;;;;;;;13.52;8.48;;;12.80;99.90;;;13.04;74.19;102527.53;4944244;29;20064;-67
2023/05/19 03:29:26;;;;;;;13.95;7.70;;;12.80;99.90;;;13.04;74.47;102533.75;4933404;29;20048;-67
2023/05/19 03:31:54;;;;;;;9.85;7.95;;;12.70;99.90;;;13.04;74.40;102549.69;4944656;28;20381;-67
2023/05/19 03:34:23;;;;;;;17.10;8.45;;;12.70;99.90;;;13.02;74.58;102524.81;4932746;28;20102;-67
2023/05/19 03:36:51;;;;;;;16.92;8.15;;;12.70;99.90;;;12.99;74.75;102527.44;4926195;29;20099;-67
2023/05/19 03:39:22;;;;;;;16.52;8.30;;;12.70;99.90;;;13.00;74.75;102529.22;4946066;29;20168;-67
2023/05/19 03:41:51;;;;;;;17.02;8.32;;;12.70;99.90;;;12.99;74.81;102523.91;4946349;28;20508;-67
2023/05/19 03:44:19;;;;;;;15.38;8.23;;;12.70;99.90;;;12.94;75.04;102523.84;4927984;29;20099;-67
2023/05/19 03:46:48;;;;;;;15.48;8.13;;;12.70;99.90;;;12.83;75.16;102498.91;4931038;29;20079;-67
2023/05/19 03:49:42;;;;;;;14.52;7.97;;;12.60;99.90;;;12.96;75.49;102534.47;4932352;29;20051;-67
2023/05/19 03:52:29;;;;;;;14.75;8.25;;;12.60;99.90;;;13.00;75.40;102534.53;4931196;29;20047;-67
2023/05/19 03:55:09;;;;;;;12.90;8.07;;;12.60;99.90;;;12.97;74.96;102529.16;4929032;29;20066;-67
2023/05/19 03:57:37;;;;;;;17.38;8.43;;;12.60;99.90;;;12.91;75.27;102523.78;4929473;29;20059;-67
2023/05/19 04:00:09;;;;;;;15.45;7.97;;;12.60;99.90;;;12.91;75.27;102537.06;4939113;29;20051;-67
2023/05/19 04:02:39;;;;;;;18.02;8.93;;;12.60;99.90;;;12.91;75.63;102529.09;4930763;29;20087;-67
2023/05/19 04:05:08;;;;;;;16.40;9.00;;;12.60;99.90;;;12.85;75.67;102530.78;4931276;29;20047;-67
2023/05/19 04:07:37;;;;;;;17.23;8.53;;;12.60;99.90;;;12.88;75.73;102534.38;4946233;29;20052;-67
2023/05/19 04:10:08;;;;;;;13.93;8.57;;;12.50;99.90;;;12.90;75.79;102534.38;4944628;28;20876;-68
2023/05/19 04:12:37;;;;;;;15.68;8.68;;;12.60;99.90;;;12.88;75.90;102539.69;4947421;29;20051;-67
2023/05/19 04:15:07;;;;;;;16.35;8.55;;;12.60;99.90;;;12.89;75.88;102530.84;4929244;29;20064;-67
2023/05/19 04:17:35;;;;;;;15.50;8.68;;;12.60;99.90;;;12.25;75.93;102411.44;4944263;29;20447;-67
2023/05/19 04:20:05;;;;;;;15.30;8.73;;;12.60;99.90;;;12.90;76.04;102537.94;4946553;29;20079;-68
2023/05/19 04:22:33;;;;;;;17.17;8.60;;;12.60;99.90;;;12.92;76.06;102543.28;4944966;29;20052;-67
2023/05/19 04:25:03;;;;;;;15.55;8.63;;;12.60;99.90;;;12.87;76.27;102535.28;4931029;29;20051;-66
2023/05/19 04:27:35;;;;;;;14.88;9.02;;;12.60;99.90;;;12.89;76.46;102541.47;4931537;29;20087;-67
2023/05/19 04:30:04;;;;;;;14.52;8.43;;;12.60;99.90;;;12.92;76.52;102549.50;4941957;29;20054;-67
2023/05/19 04:32:33;;;;;;;13.52;8.68;;;12.60;99.90;;;12.96;76.32;102539.78;4940685;29;20412;-67
2023/05/19 04:35:02;;;;;;;14.73;8.68;;;12.60;99.90;;;12.91;76.60;102539.72;4940558;29;20071;-67
2023/05/19 04:37:30;;;;;;;17.25;8.65;;;12.60;99.90;;;12.98;76.47;102538.03;4943533;29;20062;-67
2023/05/19 04:39:59;;;;;;;16.58;9.00;;;12.70;99.90;;;13.00;76.47;102541.59;4941492;29;20075;-67
2023/05/19 04:42:29;;;;;;;18.70;9.27;;;12.70;99.90;;;13.04;76.57;102554.09;4942949;29;20138;-67
2023/05/19 04:45:02;;;;;;;16.23;8.50;;;12.70;99.90;;;13.05;76.66;102553.22;4942628;29;20059;-67
2023/05/19 04:47:35;;;;;;;14.63;8.95;;;12.80;99.90;;;13.09;76.65;102550.63;4940996;28;20155;-67
2023/05/19 04:50:06;;;;;;;16.55;9.10;;;12.80;99.90;;;13.11;76.52;102548.88;4927999;29;20151;-67
2023/05/19 04:52:35;;;;;;;13.15;9.15;;;12.80;99.90;;;13.14;76.43;102548.91;4943476;28;20055;-67
2023/05/19 04:55:06;;;;;;;16.35;9.23;;;12.80;99.90;;;13.18;76.46;102553.38;4941555;29;20052;-68
2023/05/19 04:57:36;;;;;;;;;;;12.80;99.90;;;13.24;76.54;102553.44;4942555;29;20051;-67
2023/05/19 05:00:12;;;;;;;17.33;9.20;;;13.00;99.90;;;13.28;76.44;102565.00;4934741;29;20376;-67
2023/05/19 05:03:03;;;;;;;14.50;9.68;;;13.00;99.90;;;13.30;76.17;102565.91;4941369;29;20056;-67
2023/05/19 05:05:33;;;;;;;17.98;9.30;;;13.00;99.90;;;13.38;76.65;102564.25;4940408;28;20052;-67
2023/05/19 05:08:01;;;;;;;16.48;9.18;;;13.00;99.90;;;13.37;76.33;102586.41;4925406;29;20528;-67
2023/05/19 05:10:35;;;;;;;17.60;9.18;;;13.10;99.90;;;13.41;76.33;102561.63;4924864;29;20063;-67
2023/05/19 05:13:04;;;;;;;15.20;9.23;;;13.10;99.90;;;13.32;76.52;102545.56;4927584;29;20504;-67
2023/05/19 05:15:35;;;;;;;24.88;9.70;;;13.10;99.90;;;13.46;76.23;102560.81;4941648;29;20055;-67
2023/05/19 05:18:04;;;;;;;18.17;9.75;;;13.20;99.90;;;13.52;76.62;102566.19;4932937;29;20039;-67
2023/05/19 05:20:34;;;;;;;16.10;9.30;;;13.10;99.90;;;13.58;76.59;102558.28;4928199;29;20044;-67
2023/05/19 05:23:03;;;;;;;14.57;9.32;;;13.20;99.90;;;13.68;76.42;102567.25;4940059;29;20048;-67
2023/05/19 05:25:33;;;;;;;17.50;10.05;;;13.30;99.90;;;13.67;76.44;102572.53;4939773;29;20146;-67
2023/05/19 05:28:03;;;;;;;18.95;9.50;;;13.40;99.90;;;13.74;76.14;102569.97;4942829;29;20465;-67
2023/05/19 05:30:36;;;;;;;16.00;8.85;;;13.40;99.90;;;13.86;75.72;102563.88;4938443;29;20124;-67
2023/05/19 05:33:07;;;;;;;20.70;9.90;;;13.50;99.90;;;13.87;75.93;102573.63;4928135;29;20083;-67
2023/05/19 05:35:38;;;;;;;15.23;9.23;;;13.60;99.90;;;13.87;76.06;102569.19;4940468;28;20091;-67
2023/05/19 05:38:10;;;;;;;18.48;10.18;;;13.60;99.90;;;13.95;75.76;102569.28;4939989;29;20155;-67
2023/05/19 05:40:38;;;;;;;15.68;9.55;;;13.60;99.90;;;13.97;75.79;102568.41;4942332;29;20056;-67
2023/05/19 05:43:08;;;;;;;18.85;9.90;;;13.60;99.90;;;14.08;75.77;102566.72;4940625;29;20054;-67
2023/05/19 05:45:44;;;;;;;18.20;9.02;;;13.70;99.90;;;14.03;75.42;102567.56;4941078;28;20082;-67
2023/05/19 05:48:13;;;;;;;16.63;9.23;;;13.80;99.90;;;14.20;75.48;102571.25;4938916;29;20059;-68
2023/05/19 05:50:45;;;;;;;16.15;9.35;;;13.80;99.90;;;14.30;75.20;102575.81;4939354;29;20416;-67
2023/05/19 05:53:20;;;;;;;17.27;9.68;;;13.90;99.90;;;14.41;74.92;102582.09;4929195;29;20052;-67
2023/05/19 05:55:52;;;;;;;20.17;9.70;;;14.10;99.90;;;14.53;74.49;102566.22;4941108;28;20044;-67
2023/05/19 05:58:23;;;;;;;18.63;10.18;;;14.20;99.90;;;14.56;74.33;102563.56;4938477;29;20132;-67
2023/05/19 06:00:56;;;;;;;18.30;9.68;;;14.30;99.90;;;14.64;73.34;102561.84;4941748;29;20060;-67
2023/05/19 06:03:26;;;;;;;17.02;9.27;;;14.30;99.90;;;14.66;72.71;102565.41;4939481;29;20052;-67
2023/05/19 06:05:56;;;;;;;16.50;9.77;;;14.30;99.90;;;14.63;72.46;102560.09;4941837;29;20147;-67
2023/05/19 06:08:24;;;;;;;15.63;9.77;;;14.40;99.90;;;14.65;72.67;102560.09;4940115;29;20075;-67
2023/05/19 06:10:53;;;;;;;16.00;9.90;;;14.30;99.90;;;14.67;72.57;102566.31;4940640;29;20186;-67
2023/05/19 06:13:22;;;;;;;16.73;9.75;;;14.30;99.90;;;14.78;72.42;102562.81;4940652;29;20465;-67
2023/05/19 06:15:53;;;;;;;17.48;9.80;;;14.50;99.90;;;14.89;72.76;102570.84;4939940;28;20813;-68
2023/05/19 06:18:26;;;;;;;17.83;9.45;;;14.60;99.90;;;15.00;72.64;102569.16;4938769;29;20071;-67
2023/05/19 06:20:54;;;;;;;16.65;10.10;;;14.70;99.90;;;15.15;72.44;102574.56;4924375;29;20052;-67
2023/05/19 06:23:24;;;;;;;17.35;9.73;;;14.80;99.90;;;15.27;71.73;102575.47;4927127;29;20049;-67
2023/05/19 06:25:52;;;;;;;16.83;9.50;;;14.90;99.90;;;15.41;71.08;102570.19;4939298;29;20151;-67
2023/05/19 06:28:21;;;;;;;18.30;10.15;;;15.10;99.90;;;15.39;70.15;102546.19;4940592;29;20043;-67
2023/05/19 06:30:53;;;;;;;12.82;9.43;;;15.20;99.90;;;15.68;69.67;102564.09;4940502;29;20048;-67
2023/05/19 06:33:42;;;;;;;15.43;9.02;;;15.40;99.90;;;15.75;69.24;102568.53;4937766;29;20087;-67
2023/05/19 06:36:10;;;;;;;14.45;9.20;;;15.50;99.90;;;15.89;69.17;102569.44;4939918;29;20565;-68
2023/05/19 06:38:41;;;;;;;17.77;9.90;;;15.60;99.90;;;16.06;68.95;102575.69;4941133;29;20103;-67
2023/05/19 06:41:10;;;;;;;14.63;9.32;;;15.70;99.90;;;16.17;68.58;102577.47;4939029;28;20055;-67
2023/05/19 06:43:39;;;;;;;19.67;9.73;;;15.80;99.90;;;16.21;68.16;102581.03;4941403;29;20063;-68
2023/05/19 06:46:11;;;;;;;20.10;9.80;;;15.90;99.90;;;16.30;68.23;102580.16;4938404;29;20119;-68
2023/05/19 06:48:40;;;;;;;13.65;8.68;;;16.00;99.90;;;16.42;68.66;102577.44;4940885;29;20054;-68
2023/05/19 06:51:09;;;;;;;15.95;9.18;;;16.10;99.90;;;16.32;68.25;102573.03;4924874;29;20044;-68
2023/05/19 06:53:39;;;;;;;15.95;9.85;;;16.10;99.90;;;16.23;66.99;102584.59;4939284;28;20055;-67
2023/05/19 06:56:09;;;;;;;18.77;9.55;;;16.00;99.90;;;16.25;67.17;102578.38;4940560;29;20067;-67
2023/05/19 06:58:40;;;;;;;18.08;9.85;;;16.00;99.90;;;16.40;66.64;102576.56;4938817;29;20159;-68
2023/05/19 07:01:10;;;;;;;16.88;9.38;;;16.10;99.90;;;16.45;65.72;102577.44;4941508;29;20083;-68
2023/05/19 07:03:45;;;;;;;16.23;9.25;;;16.10;99.90;;;16.57;65.72;102578.34;4939079;29;20056;-67
2023/05/19 07:06:15;;;;;;;16.23;8.95;;;16.30;99.90;;;16.70;65.57;102581.91;4940089;29;20493;-68
2023/05/19 07:08:43;;;;;;;14.65;9.05;;;16.40;99.90;;;16.84;64.81;102582.75;4939982;29;20040;-68
2023/05/19 07:11:12;;;;;;;16.10;9.18;;;16.50;99.90;;;16.78;63.92;102583.63;4938888;29;20048;-68
2023/05/19 07:13:42;;;;;;;16.92;9.68;;;16.60;99.90;;;15.87;66.32;102572.09;4937627;29;20059;-68
2023/05/19 07:16:12;;;;;;;18.15;10.02;;;15.90;99.90;;;15.33;67.89;102575.50;4922032;29;20044;-68
2023/05/19 07:18:40;;;;;;;14.65;10.13;;;15.20;99.90;;;15.09;70.14;102575.41;4941713;29;20055;-68
2023/05/19 07:21:10;;;;;;;18.13;9.95;;;14.70;99.90;;;15.60;68.79;102569.38;4935365;29;20048;-69
2023/05/19 07:23:39;;;;;;;18.77;9.25;;;15.10;99.90;;;15.82;66.82;102543.63;4938732;29;20080;-68
2023/05/19 07:26:07;;;;;;;20.08;10.18;;;15.50;99.90;;;15.55;67.33;102567.59;4925155;29;20056;-68
2023/05/19 07:28:36;;;;;;;13.57;9.23;;;15.30;99.90;;;15.75;67.16;102560.53;4924905;29;20116;-70
2023/05/19 07:31:09;;;;;;;16.50;9.07;;;15.40;99.90;;;16.12;65.67;102573.03;4924352;29;20497;-68
2023/05/19 07:33:39;;;;;;;17.30;9.60;;;15.70;99.90;;;15.94;65.21;102575.66;4926532;29;20048;-69
2023/05/19 07:36:07;;;;;;;14.73;8.70;;;15.70;99.90;;;16.21;64.91;102568.56;4923352;29;20122;-68
2023/05/19 07:38:36;;;;;;;21.20;9.63;;;15.80;99.90;;;15.88;65.33;102564.97;4923140;29;20071;-68
2023/05/19 07:41:04;;;;;;;15.10;8.30;;;15.60;99.90;;;16.24;65.56;102559.63;4926437;29;20134;-68
2023/05/19 07:43:33;;;;;;;15.90;8.00;;;15.80;99.90;;;16.53;65.03;102565.88;4924067;29;20199;-67
2023/05/19 07:46:01;;;;;;;15.48;8.48;;;16.10;99.90;;;16.79;64.19;102571.19;4925426;29;20127;-68
2023/05/19 07:48:30;;;;;;;16.13;8.88;;;16.40;99.90;;;16.98;63.39;102562.19;4924526;29;20154;-68
2023/05/19 07:50:59;;;;;;;14.23;8.48;;;16.70;99.90;;;16.82;61.27;102573.84;4924655;29;20556;-68
2023/05/19 07:53:28;;;;;;;17.73;8.95;;;16.70;99.90;;;15.72;64.60;102573.84;4939915;29;20075;-67
2023/05/19 07:55:56;;;;;;;17.60;9.35;;;15.70;99.90;;;15.07;67.56;102558.53;4938405;28;20066;-67
2023/05/19 07:58:26;;;;;;;16.55;8.52;;;14.90;99.90;;;15.80;67.12;102556.06;4941033;29;20055;-67
2023/05/19 08:00:57;;;;;;;20.13;8.95;;;15.30;99.90;;;16.26;65.39;102563.22;4922913;29;20474;-67
2023/05/19 08:03:26;;;;;;;17.08;8.98;;;15.70;99.90;;;16.39;63.96;102565.00;4938393;29;20525;-68
2023/05/19 08:05:55;;;;;;;16.90;8.85;;;16.00;99.90;;;16.15;63.74;102562.31;4929028;29;20585;-68
2023/05/19 08:08:25;;;;;;;14.23;8.25;;;16.00;99.90;;;16.56;64.54;102560.53;4942697;29;20100;-68
2023/05/19 08:10:53;;;;;;;14.52;8.02;;;16.20;99.90;;;16.95;63.93;102551.53;4928023;29;20374;-68
2023/05/19 08:13:22;;;;;;;14.32;7.88;;;16.60;99.90;;;17.26;62.30;102565.66;4928920;29;20072;-68
2023/05/19 08:15:50;;;;;;;14.93;8.00;;;16.80;99.90;;;17.48;60.79;102562.00;4941754;28;20052;-68
2023/05/19 08:18:19;;;;;;;13.32;7.63;;;17.10;99.90;;;17.71;60.85;102562.78;4929454;29;20040;-68
2023/05/19 08:20:47;;;;;;;13.93;7.07;;;17.40;99.90;;;17.93;60.05;102559.91;4926441;29;20195;-68
2023/05/19 08:23:16;;;;;;;14.60;7.47;;;17.60;99.90;;;17.82;58.53;102564.47;4926551;29;20036;-68
2023/05/19 08:25:46;;;;;;;13.45;7.10;;;17.50;99.90;;;18.03;58.42;102563.41;4929599;29;20076;-67
2023/05/19 08:28:14;;;;;;;15.70;6.97;;;17.70;99.90;;;18.22;58.22;102559.66;4927323;29;20048;-67
2023/05/19 08:30:43;;;;;;;10.15;6.40;;;17.90;99.90;;;18.40;56.68;102558.63;4942919;28;20386;-68
2023/05/19 08:33:11;;;;;;;10.52;6.40;;;18.10;99.90;;;18.70;57.16;102558.31;4927771;29;20486;-67
2023/05/19 08:35:40;;;;;;;16.80;7.25;;;18.40;99.90;;;18.87;56.41;102553.69;4942280;29;20047;-68
2023/05/19 08:38:08;;;;;;;12.13;6.57;;;18.60;99.90;;;18.90;54.45;102551.84;4928469;29;20044;-68
2023/05/19 08:40:39;;;;;;;12.48;6.40;;;18.70;99.90;;;19.08;54.44;102544.50;4926730;29;20051;-68
2023/05/19 08:43:10;;;;;;;11.68;5.97;;;18.80;99.90;;;19.26;53.00;102549.63;4929605;29;20079;-67
2023/05/19 08:45:40;;;;;;;;;;;19.00;99.90;;;19.39;51.93;102540.53;4926768;29;20059;-67
2023/05/19 08:48:08;;;;;;;11.65;6.03;;;19.20;99.90;;;19.34;52.03;102550.41;4928999;29;20395;-68
2023/05/19 08:50:41;;;;;;;12.38;5.40;;;19.10;99.90;;;19.55;50.37;102536.72;4927329;29;20109;-68
2023/05/19 08:53:16;;;;;;;11.77;6.18;;;19.30;99.90;;;18.09;51.68;102527.66;4927502;29;20047;-68
2023/05/19 08:56:09;;;;;;;10.52;5.90;;;18.40;99.90;;;18.38;51.25;102505.03;4927452;29;20052;-67
2023/05/19 08:58:42;;;;;;;14.10;6.05;;;18.30;99.90;;;18.78;50.77;102533.22;4926029;29;20071;-68
2023/05/19 09:01:15;;;;;;;10.82;6.10;;;18.40;99.90;;;19.08;52.20;102537.34;4926103;29;20056;-68
2023/05/19 09:03:45;;;;;;;11.82;5.97;;;18.70;99.90;;;19.39;52.18;102527.09;4927876;29;20059;-68
2023/05/19 09:06:13;;;;;;;12.35;5.78;;;19.00;99.90;;;19.79;52.52;102529.16;4927172;29;20050;-68
2023/05/19 09:08:43;;;;;;;11.00;5.28;;;19.40;99.90;;;19.87;48.99;102531.72;4926845;29;20066;-68
2023/05/19 09:11:13;;;;;;;9.25;5.15;;;19.60;99.90;;;20.04;49.08;102529.66;4928570;29;20066;-68
2023/05/19 09:13:42;;;;;;;12.35;5.45;;;19.70;99.90;;;20.24;48.35;102524.88;4925581;29;20106;-68
2023/05/19 09:16:11;;;;;;;12.50;5.73;;;20.00;99.90;;;20.20;47.76;102536.59;4924501;29;20044;-68
2023/05/19 09:18:40;;;;;;;11.10;5.80;;;20.00;99.90;;;20.32;46.54;102522.94;4928520;29;20048;-68
2023/05/19 09:21:10;;;;;;;10.85;5.88;;;20.00;99.90;;;19.13;46.63;102519.38;4940377;29;20099;-68
2023/05/19 09:23:39;;;;;;;13.20;5.82;;;19.40;99.90;;;18.46;50.05;102523.75;4927399;29;20132;-67
2023/05/19 09:26:07;;;;;;;13.85;6.32;;;18.30;99.90;;;19.07;49.75;102519.44;4926500;29;20059;-68
2023/05/19 09:28:37;;;;;;;12.38;5.43;;;18.60;99.90;;;19.06;49.74;102525.72;4926432;29;20056;-68
2023/05/19 09:31:08;;;;;;;8.43;4.40;;;18.70;99.90;;;19.37;45.71;102524.44;4927556;29;20055;-68
2023/05/19 09:33:39;;;;;;;13.90;5.32;;;19.00;99.90;;;18.81;46.18;102522.44;4925162;29;20058;-68
2023/05/19 09:36:10;;;;;;;8.60;4.72;;;18.80;99.90;;;17.92;49.37;102519.78;4925377;29;20066;-68
2023/05/19 09:38:40;;;;;;;10.65;5.97;;;17.80;99.90;;;17.09;51.48;102523.81;4927392;29;20408;-68
2023/05/19 09:41:09;;;;;;;10.17;5.67;;;16.90;99.90;;;17.27;50.49;102485.41;4940846;29;20056;-68
2023/05/19 09:43:37;;;;;;;12.82;5.55;;;17.00;99.90;;;17.57;51.21;102516.47;4926790;29;20135;-68
2023/05/19 09:46:09;;;;;;;8.00;5.40;;;17.20;99.90;;;18.04;50.90;102509.81;4922281;29;20576;-68
2023/05/19 09:48:41;;;;;;;14.02;5.90;;;17.60;99.90;;;18.29;49.73;102502.44;4928294;29;20051;-68
2023/05/19 09:51:10;;;;;;;10.35;5.28;;;18.00;99.90;;;17.86;50.97;102501.97;4924780;29;20111;-68
2023/05/19 09:53:39;;;;;;;15.30;5.75;;;17.60;99.90;;;18.63;50.92;102521.78;4927502;29;20039;-68
2023/05/19 09:56:09;;;;;;;11.77;4.72;;;18.10;99.90;;;19.05;49.15;102520.41;4925393;29;20040;-67
2023/05/19 09:58:42;;;;;;;10.07;4.90;;;18.60;99.90;;;19.50;48.20;102514.41;4926459;29;20048;-68
2023/05/19 10:01:11;;;;;;;12.85;4.90;;;19.10;99.90;;;19.84;47.90;102517.47;4926934;29;20044;-68
2023/05/19 10:03:41;;;;;;;10.48;4.85;;;19.50;99.90;;;20.17;46.40;102512.41;4925045;29;20055;-67
2023/05/19 10:06:11;;;;;;;11.15;4.63;;;19.80;99.90;;;18.97;44.40;102511.56;4938950;29;20119;-68
2023/05/19 10:08:41;;;;;;;11.00;4.90;;;19.20;99.90;;;19.36;47.73;102511.03;4924379;29;20079;-67
2023/05/19 10:11:11;;;;;;;11.63;4.88;;;19.10;99.90;;;19.64;46.64;102509.72;4927143;29;20198;-68
2023/05/19 10:13:39;;;;;;;12.40;5.23;;;19.40;99.90;;;18.36;48.06;102514.91;4936914;29;20103;-67
2023/05/19 10:16:10;;;;;;;12.13;4.88;;;18.30;99.90;;;19.21;47.24;102508.53;4925642;29;20075;-66
2023/05/19 10:18:41;;;;;;;11.02;5.18;;;18.70;99.90;;;19.69;45.74;102508.75;4925359;29;20446;-66
2023/05/19 10:21:10;;;;;;;9.93;4.93;;;19.20;99.90;;;19.57;46.47;102514.28;4927010;29;20422;-66
2023/05/19 10:23:39;;;;;;;9.23;5.10;;;19.30;99.90;;;19.04;44.71;102514.13;4924021;29;20063;-67